sensor_id;sensor_type;location;lat;lon;timestamp;pressure;altitude;pressure_sealevel;temperature;humidity
45523;BME280;31254;51.680;5.394;2023-01-28T00:02:01;102986.16;;;3.91;79.13
45523;BME280;31254;51.680;5.394;2023-01-28T00:04:30;102983.56;;;3.88;79.05
45523;BME280;31254;51.680;5.394;2023-01-28T00:06:57;102974.91;;;3.78;80.01
45523;BME280;31254;51.680;5.394;2023-01-28T00:09:24;102967.84;;;3.74;79.56
45523;BME280;31254;51.680;5.394;2023-01-28T00:11:50;103001.47;;;3.90;79.51
45523;BME280;31254;51.680;5.394;2023-01-28T00:14:17;102987.44;;;3.79;79.54
45523;BME280;31254;51.680;5.394;2023-01-28T00:16:44;103000.69;;;3.87;78.85
45523;BME280;31254;51.680;5.394;2023-01-28T00:19:10;102997.22;;;3.83;78.87
45523;BME280;31254;51.680;5.394;2023-01-28T00:21:37;102994.53;;;3.83;78.70
45523;BME280;31254;51.680;5.394;2023-01-28T00:24:04;102983.22;;;3.72;78.79
45523;BME280;31254;51.680;5.394;2023-01-28T00:26:32;103002.78;;;3.78;78.69
45523;BME280;31254;51.680;5.394;2023-01-28T00:29:01;103001.84;;;3.79;78.97
45523;BME280;31254;51.680;5.394;2023-01-28T00:31:30;102998.25;;;3.79;79.41
45523;BME280;31254;51.680;5.394;2023-01-28T00:33:56;102996.50;;;3.78;78.27
45523;BME280;31254;51.680;5.394;2023-01-28T00:36:26;103001.97;;;3.76;78.99
45523;BME280;31254;51.680;5.394;2023-01-28T00:38:55;102998.44;;;3.74;78.51
45523;BME280;31254;51.680;5.394;2023-01-28T00:41:24;103004.72;;;3.75;78.90
45523;BME280;31254;51.680;5.394;2023-01-28T00:43:54;103001.13;;;3.74;78.55
45523;BME280;31254;51.680;5.394;2023-01-28T00:46:23;102979.19;;;3.58;79.22
45523;BME280;31254;51.680;5.394;2023-01-28T00:48:54;103007.50;;;3.72;78.91
45523;BME280;31254;51.680;5.394;2023-01-28T00:51:23;103002.16;;;3.70;78.41
45523;BME280;31254;51.680;5.394;2023-01-28T00:53:49;103003.09;;;3.69;78.88
45523;BME280;31254;51.680;5.394;2023-01-28T00:56:17;103004.00;;;3.70;78.93
45523;BME280;31254;51.680;5.394;2023-01-28T00:58:45;103012.09;;;3.70;77.92
45523;BME280;31254;51.680;5.394;2023-01-28T01:01:15;102990.84;;;3.59;78.37
45523;BME280;31254;51.680;5.394;2023-01-28T01:03:42;102997.06;;;3.61;78.63
45523;BME280;31254;51.680;5.394;2023-01-28T01:06:13;102993.59;;;3.57;78.73
45523;BME280;31254;51.680;5.394;2023-01-28T01:08:40;103010.38;;;3.67;78.91
45523;BME280;31254;51.680;5.394;2023-01-28T01:11:10;103008.59;;;3.66;78.32
45523;BME280;31254;51.680;5.394;2023-01-28T01:13:40;103000.72;;;3.60;78.46
45523;BME280;31254;51.680;5.394;2023-01-28T01:16:09;102989.19;;;3.55;78.48
45523;BME280;31254;51.680;5.394;2023-01-28T01:18:37;103013.22;;;3.62;78.39
45523;BME280;31254;51.680;5.394;2023-01-28T01:21:09;103012.28;;;3.63;78.00
45523;BME280;31254;51.680;5.394;2023-01-28T01:23:36;102991.88;;;3.55;78.25
45523;BME280;31254;51.680;5.394;2023-01-28T01:26:04;102990.09;;;3.55;77.92
45523;BME280;31254;51.680;5.394;2023-01-28T01:28:31;102994.66;;;3.53;77.74
45523;BME280;31254;51.680;5.394;2023-01-28T01:31:00;103003.47;;;3.58;77.84
45523;BME280;31254;51.680;5.394;2023-01-28T01:33:36;103000.78;;;3.58;77.69
45523;BME280;31254;51.680;5.394;2023-01-28T01:36:02;103008.94;;;3.57;77.65
45523;BME280;31254;51.680;5.394;2023-01-28T01:38:31;103009.03;;;3.54;78.01
45523;BME280;31254;51.680;5.394;2023-01-28T01:40:59;103012.66;;;3.53;77.58
45523;BME280;31254;51.680;5.394;2023-01-28T01:43:49;103008.25;;;3.50;77.73
45523;BME280;31254;51.680;5.394;2023-01-28T01:46:19;102991.53;;;3.39;77.53
45523;BME280;31254;51.680;5.394;2023-01-28T01:48:48;102991.63;;;3.36;77.72
45523;BME280;31254;51.680;5.394;2023-01-28T01:51:19;103014.47;;;3.52;77.29
45523;BME280;31254;51.680;5.394;2023-01-28T01:53:48;103009.94;;;3.53;78.23
45523;BME280;31254;51.680;5.394;2023-01-28T01:56:20;103009.13;;;3.51;77.72
45523;BME280;31254;51.680;5.394;2023-01-28T01:58:49;102934.94;;;3.09;77.50
45523;BME280;31254;51.680;5.394;2023-01-28T02:01:22;103002.91;;;3.48;77.02
45523;BME280;31254;51.680;5.394;2023-01-28T02:04:04;103018.09;;;3.51;77.81
45523;BME280;31254;51.680;5.394;2023-01-28T02:06:35;103018.03;;;3.53;77.63
45523;BME280;31254;51.680;5.394;2023-01-28T02:09:18;103011.94;;;3.47;78.10
45523;BME280;31254;51.680;5.394;2023-01-28T02:11:52;102990.00;;;3.30;78.19
45523;BME280;31254;51.680;5.394;2023-01-28T02:14:24;103004.94;;;3.42;78.00
45523;BME280;31254;51.680;5.394;2023-01-28T02:16:59;103017.31;;;3.47;77.96
45523;BME280;31254;51.680;5.394;2023-01-28T02:19:33;103009.22;;;3.47;78.63
45523;BME280;31254;51.680;5.394;2023-01-28T02:22:34;102997.97;;;3.35;78.60
45523;BME280;31254;51.680;5.394;2023-01-28T02:30:51;102996.88;;;3.40;78.49
45523;BME280;31254;51.680;5.394;2023-01-28T02:33:56;103022.66;;;3.49;78.08
45523;BME280;31254;51.680;5.394;2023-01-28T02:38:52;103017.28;;;3.49;78.14
45523;BME280;31254;51.680;5.394;2023-01-28T02:41:23;102988.88;;;3.37;78.80
45523;BME280;31254;51.680;5.394;2023-01-28T02:43:54;103017.28;;;3.49;79.01
45523;BME280;31254;51.680;5.394;2023-01-28T02:49:12;103018.19;;;3.48;79.24
45523;BME280;31254;51.680;5.394;2023-01-28T02:59:38;103022.91;;;3.41;78.38
45523;BME280;31254;51.680;5.394;2023-01-28T03:07:48;103025.03;;;3.32;79.31
45523;BME280;31254;51.680;5.394;2023-01-28T03:10:19;103021.50;;;3.29;78.87
45523;BME280;31254;51.680;5.394;2023-01-28T03:12:49;103010.97;;;3.22;78.63
45523;BME280;31254;51.680;5.394;2023-01-28T03:15:42;103034.94;;;3.31;78.38
45523;BME280;31254;51.680;5.394;2023-01-28T03:18:44;103042.22;;;3.29;78.78
45523;BME280;31254;51.680;5.394;2023-01-28T03:21:34;103013.72;;;3.20;78.59
45523;BME280;31254;51.680;5.394;2023-01-28T03:30:03;103027.19;;;3.20;79.57
45523;BME280;31254;51.680;5.394;2023-01-28T03:32:54;103028.03;;;3.22;79.46
45523;BME280;31254;51.680;5.394;2023-01-28T03:35:40;103024.34;;;3.25;79.57
45523;BME280;31254;51.680;5.394;2023-01-28T03:38:26;103027.09;;;3.23;79.13
45523;BME280;31254;51.680;5.394;2023-01-28T03:41:01;103021.66;;;3.25;79.72
45523;BME280;31254;51.680;5.394;2023-01-28T03:43:30;103016.31;;;3.23;79.64
45523;BME280;31254;51.680;5.394;2023-01-28T03:45:57;103020.88;;;3.21;78.81
45523;BME280;31254;51.680;5.394;2023-01-28T03:48:25;103027.25;;;3.19;80.00
45523;BME280;31254;51.680;5.394;2023-01-28T03:50:54;103025.53;;;3.16;78.61
45523;BME280;31254;51.680;5.394;2023-01-28T03:53:23;103033.59;;;3.18;78.80
45523;BME280;31254;51.680;5.394;2023-01-28T03:55:51;103036.28;;;3.18;78.58
45523;BME280;31254;51.680;5.394;2023-01-28T03:58:19;102989.44;;;2.92;78.84
45523;BME280;31254;51.680;5.394;2023-01-28T04:00:46;103022.22;;;3.08;78.76
45523;BME280;31254;51.680;5.394;2023-01-28T04:03:15;102959.56;;;2.70;78.23
45523;BME280;31254;51.680;5.394;2023-01-28T04:05:57;103023.31;;;3.01;79.20
45523;BME280;31254;51.680;5.394;2023-01-28T04:08:24;103043.63;;;3.13;78.38
45523;BME280;31254;51.680;5.394;2023-01-28T04:10:51;103045.56;;;3.07;78.64
45523;BME280;31254;51.680;5.394;2023-01-28T04:13:22;103052.59;;;3.13;79.31
45523;BME280;31254;51.680;5.394;2023-01-28T04:15:51;103056.22;;;3.12;78.63
45523;BME280;31254;51.680;5.394;2023-01-28T04:18:18;103043.97;;;3.02;78.71
45523;BME280;31254;51.680;5.394;2023-01-28T04:20:48;103043.75;;;3.09;78.94
45523;BME280;31254;51.680;5.394;2023-01-28T04:23:15;103051.81;;;3.09;79.01
45523;BME280;31254;51.680;5.394;2023-01-28T04:25:41;103041.91;;;3.10;78.80
45523;BME280;31254;51.680;5.394;2023-01-28T04:28:10;103046.38;;;3.11;78.64
45523;BME280;31254;51.680;5.394;2023-01-28T04:30:37;103043.69;;;3.11;78.94
45523;BME280;31254;51.680;5.394;2023-01-28T04:33:06;103042.84;;;3.09;78.82
45523;BME280;31254;51.680;5.394;2023-01-28T04:35:32;103036.78;;;3.01;79.02
45523;BME280;31254;51.680;5.394;2023-01-28T04:37:59;103034.78;;;3.07;79.05
45523;BME280;31254;51.680;5.394;2023-01-28T04:40:30;103044.66;;;3.08;78.21
45523;BME280;31254;51.680;5.394;2023-01-28T04:42:57;103020.03;;;2.91;78.40
45523;BME280;31254;51.680;5.394;2023-01-28T04:45:24;103042.00;;;3.07;79.03
45523;BME280;31254;51.680;5.394;2023-01-28T04:47:50;103045.63;;;3.06;78.64
45523;BME280;31254;51.680;5.394;2023-01-28T04:50:17;103047.41;;;3.07;79.06
45523;BME280;31254;51.680;5.394;2023-01-28T04:52:44;103053.66;;;3.07;78.61
45523;BME280;31254;51.680;5.394;2023-01-28T04:55:10;103052.78;;;3.07;79.39
45523;BME280;31254;51.680;5.394;2023-01-28T04:57:37;103063.53;;;3.08;78.85
45523;BME280;31254;51.680;5.394;2023-01-28T05:00:04;103038.75;;;2.96;78.71
45523;BME280;31254;51.680;5.394;2023-01-28T05:02:31;103059.06;;;3.07;79.16
45523;BME280;31254;51.680;5.394;2023-01-28T05:04:58;103049.44;;;2.99;79.13
45523;BME280;31254;51.680;5.394;2023-01-28T05:07:26;103040.63;;;2.93;79.16
45523;BME280;31254;51.680;5.394;2023-01-28T05:09:58;103072.59;;;3.06;79.08
45523;BME280;31254;51.680;5.394;2023-01-28T05:12:24;103064.63;;;3.01;78.64
45523;BME280;31254;51.680;5.394;2023-01-28T05:14:51;103045.16;;;2.91;78.84
45523;BME280;31254;51.680;5.394;2023-01-28T05:17:18;103077.16;;;3.04;78.45
45523;BME280;31254;51.680;5.394;2023-01-28T05:19:45;103073.59;;;3.03;78.57
45523;BME280;31254;51.680;5.394;2023-01-28T05:22:11;103056.63;;;3.00;77.87
45523;BME280;31254;51.680;5.394;2023-01-28T05:24:38;103045.03;;;2.96;78.11
45523;BME280;31254;51.680;5.394;2023-01-28T05:27:04;103043.38;;;2.92;78.42
45523;BME280;31254;51.680;5.394;2023-01-28T05:29:32;103053.94;;;3.00;78.20
45523;BME280;31254;51.680;5.394;2023-01-28T05:31:59;103046.03;;;2.93;78.05
45523;BME280;31254;51.680;5.394;2023-01-28T05:34:25;103052.97;;;3.01;77.77
45523;BME280;31254;51.680;5.394;2023-01-28T05:36:52;103050.31;;;2.99;77.61
45523;BME280;31254;51.680;5.394;2023-01-28T05:39:19;103044.97;;;2.98;78.29
45523;BME280;31254;51.680;5.394;2023-01-28T05:41:48;103048.63;;;2.97;78.08
45523;BME280;31254;51.680;5.394;2023-01-28T05:44:14;103052.19;;;2.97;77.79
45523;BME280;31254;51.680;5.394;2023-01-28T05:46:41;103059.47;;;2.95;77.53
45523;BME280;31254;51.680;5.394;2023-01-28T05:49:11;103076.50;;;2.96;77.15
45523;BME280;31254;51.680;5.394;2023-01-28T05:51:39;103048.09;;;2.84;77.37
45523;BME280;31254;51.680;5.394;2023-01-28T05:54:06;103057.75;;;2.91;77.39
45523;BME280;31254;51.680;5.394;2023-01-28T05:56:35;103069.44;;;2.91;77.33
45523;BME280;31254;51.680;5.394;2023-01-28T05:59:03;103058.75;;;2.88;76.88
45523;BME280;31254;51.680;5.394;2023-01-28T06:01:31;103039.41;;;2.74;76.61
45523;BME280;31254;51.680;5.394;2023-01-28T06:04:00;103065.91;;;2.89;77.08
45523;BME280;31254;51.680;5.394;2023-01-28T06:06:26;103050.91;;;2.81;76.53
45523;BME280;31254;51.680;5.394;2023-01-28T06:08:53;103041.34;;;2.69;76.80
45523;BME280;31254;51.680;5.394;2023-01-28T06:11:20;103052.84;;;2.76;76.78
45523;BME280;31254;51.680;5.394;2023-01-28T06:13:51;103060.63;;;2.85;76.74
45523;BME280;31254;51.680;5.394;2023-01-28T06:16:18;103058.00;;;2.83;76.56
45523;BME280;31254;51.680;5.394;2023-01-28T06:18:45;103048.38;;;2.74;76.74
45523;BME280;31254;51.680;5.394;2023-01-28T06:21:14;103050.25;;;2.72;76.92
45523;BME280;31254;51.680;5.394;2023-01-28T06:23:41;103062.50;;;2.83;76.60
45523;BME280;31254;51.680;5.394;2023-01-28T06:26:08;103038.72;;;2.67;76.67
45523;BME280;31254;51.680;5.394;2023-01-28T06:28:34;103063.53;;;2.79;76.54
45523;BME280;31254;51.680;5.394;2023-01-28T06:31:01;103068.03;;;2.78;76.30
45523;BME280;31254;51.680;5.394;2023-01-28T06:33:28;103070.72;;;2.78;76.49
45523;BME280;31254;51.680;5.394;2023-01-28T06:35:55;103073.44;;;2.78;75.78
45523;BME280;31254;51.680;5.394;2023-01-28T06:38:21;103069.91;;;2.76;76.29
45523;BME280;31254;51.680;5.394;2023-01-28T06:40:52;103081.63;;;2.73;76.46
45523;BME280;31254;51.680;5.394;2023-01-28T06:43:24;103048.72;;;2.62;76.00
45523;BME280;31254;51.680;5.394;2023-01-28T06:45:53;103069.19;;;2.69;76.87
45523;BME280;31254;51.680;5.394;2023-01-28T06:48:20;103066.50;;;2.69;76.54
45523;BME280;31254;51.680;5.394;2023-01-28T06:50:48;103074.69;;;2.66;76.45
45523;BME280;31254;51.680;5.394;2023-01-28T06:53:15;103065.69;;;2.67;76.55
45523;BME280;31254;51.680;5.394;2023-01-28T06:55:42;103075.47;;;2.70;76.51
45523;BME280;31254;51.680;5.394;2023-01-28T06:58:09;103069.25;;;2.68;76.57
45523;BME280;31254;51.680;5.394;2023-01-28T07:00:36;103063.97;;;2.63;76.33
45523;BME280;31254;51.680;5.394;2023-01-28T07:03:03;103064.78;;;2.67;76.33
45523;BME280;31254;51.680;5.394;2023-01-28T07:05:30;103079.00;;;2.72;76.55
45523;BME280;31254;51.680;5.394;2023-01-28T07:07:57;103056.84;;;2.61;76.24
45523;BME280;31254;51.680;5.394;2023-01-28T07:10:24;103084.28;;;2.75;76.78
45523;BME280;31254;51.680;5.394;2023-01-28T07:12:50;103081.69;;;2.72;76.00
45523;BME280;31254;51.680;5.394;2023-01-28T07:15:17;103090.63;;;2.74;76.15
45523;BME280;31254;51.680;5.394;2023-01-28T07:17:44;103088.03;;;2.71;76.19
45523;BME280;31254;51.680;5.394;2023-01-28T07:20:12;103089.72;;;2.73;76.72
45523;BME280;31254;51.680;5.394;2023-01-28T07:22:44;103104.84;;;2.79;76.09
45523;BME280;31254;51.680;5.394;2023-01-28T07:25:11;103106.56;;;2.82;75.48
45523;BME280;31254;51.680;5.394;2023-01-28T07:27:52;103100.47;;;2.75;75.91
45523;BME280;31254;51.680;5.394;2023-01-28T07:30:19;103110.22;;;2.81;75.67
45523;BME280;31254;51.680;5.394;2023-01-28T07:32:52;103109.31;;;2.80;76.50
45523;BME280;31254;51.680;5.394;2023-01-28T07:35:18;103121.00;;;2.81;76.21
45523;BME280;31254;51.680;5.394;2023-01-28T07:37:56;103107.78;;;2.71;76.13
45523;BME280;31254;51.680;5.394;2023-01-28T07:40:26;103125.44;;;2.82;75.91
45523;BME280;31254;51.680;5.394;2023-01-28T07:42:56;103124.56;;;2.81;75.55
45523;BME280;31254;51.680;5.394;2023-01-28T07:45:24;103124.59;;;2.80;75.94
45523;BME280;31254;51.680;5.394;2023-01-28T07:47:58;103125.47;;;2.80;75.44
45523;BME280;31254;51.680;5.394;2023-01-28T07:50:27;103123.69;;;2.81;75.06
45523;BME280;31254;51.680;5.394;2023-01-28T07:52:57;103122.75;;;2.82;75.12
45523;BME280;31254;51.680;5.394;2023-01-28T07:55:27;103108.63;;;2.72;75.72
45523;BME280;31254;51.680;5.394;2023-01-28T07:57:59;103107.59;;;2.78;75.01
45523;BME280;31254;51.680;5.394;2023-01-28T08:00:30;103125.41;;;2.83;75.49
45523;BME280;31254;51.680;5.394;2023-01-28T08:03:02;103112.31;;;2.69;75.49
45523;BME280;31254;51.680;5.394;2023-01-28T08:05:38;103130.00;;;2.80;75.54
45523;BME280;31254;51.680;5.394;2023-01-28T08:08:08;103138.03;;;2.81;74.53
45523;BME280;31254;51.680;5.394;2023-01-28T08:10:35;103126.63;;;2.71;74.59
45523;BME280;31254;51.680;5.394;2023-01-28T08:13:05;103145.28;;;2.79;75.17
45523;BME280;31254;51.680;5.394;2023-01-28T08:15:32;103145.34;;;2.78;74.95
45523;BME280;31254;51.680;5.394;2023-01-28T08:18:01;103149.91;;;2.76;74.94
45523;BME280;31254;51.680;5.394;2023-01-28T08:20:33;103165.91;;;2.80;74.35
45523;BME280;31254;51.680;5.394;2023-01-28T08:23:12;103152.56;;;2.77;74.20
45523;BME280;31254;51.680;5.394;2023-01-28T08:25:39;103159.59;;;2.81;74.09
45523;BME280;31254;51.680;5.394;2023-01-28T08:28:07;103151.53;;;2.81;74.51
45523;BME280;31254;51.680;5.394;2023-01-28T08:30:35;103167.69;;;2.81;74.59
45523;BME280;31254;51.680;5.394;2023-01-28T08:33:04;103062.56;;;2.17;73.95
45523;BME280;31254;51.680;5.394;2023-01-28T08:35:32;103163.22;;;2.80;74.76
45523;BME280;31254;51.680;5.394;2023-01-28T08:38:02;103095.31;;;2.34;74.33
45523;BME280;31254;51.680;5.394;2023-01-28T08:40:30;103180.31;;;2.81;74.38
45523;BME280;31254;51.680;5.394;2023-01-28T08:42:59;103168.63;;;2.80;74.06
45523;BME280;31254;51.680;5.394;2023-01-28T08:45:29;103153.56;;;2.73;73.92
45523;BME280;31254;51.680;5.394;2023-01-28T08:48:03;103172.25;;;2.79;74.27
45523;BME280;31254;51.680;5.394;2023-01-28T08:50:35;103176.91;;;2.74;74.13
45523;BME280;31254;51.680;5.394;2023-01-28T08:53:05;103186.66;;;2.78;74.13
45523;BME280;31254;51.680;5.394;2023-01-28T08:55:33;103174.94;;;2.79;73.89
45523;BME280;31254;51.680;5.394;2023-01-28T08:58:09;103182.97;;;2.82;73.47
45523;BME280;31254;51.680;5.394;2023-01-28T09:00:37;103189.16;;;2.86;74.49
45523;BME280;31254;51.680;5.394;2023-01-28T09:03:04;103168.00;;;2.70;74.12
45523;BME280;31254;51.680;5.394;2023-01-28T09:05:34;103185.69;;;2.81;74.35
45523;BME280;31254;51.680;5.394;2023-01-28T09:08:06;103195.53;;;2.82;74.01
45523;BME280;31254;51.680;5.394;2023-01-28T09:10:34;103131.91;;;2.43;74.00
45523;BME280;31254;51.680;5.394;2023-01-28T09:13:11;103198.44;;;2.76;74.31
45523;BME280;31254;51.680;5.394;2023-01-28T09:15:38;103199.34;;;2.74;74.28
45523;BME280;31254;51.680;5.394;2023-01-28T09:18:07;103187.09;;;2.63;74.24
45523;BME280;31254;51.680;5.394;2023-01-28T09:20:34;103195.72;;;2.76;73.70
45523;BME280;31254;51.680;5.394;2023-01-28T09:23:01;103203.78;;;2.77;73.52
45523;BME280;31254;51.680;5.394;2023-01-28T09:25:28;103217.09;;;2.82;72.95
45523;BME280;31254;51.680;5.394;2023-01-28T09:27:55;103224.31;;;2.81;72.71
45523;BME280;31254;51.680;5.394;2023-01-28T09:30:22;103231.50;;;2.82;73.63
45523;BME280;31254;51.680;5.394;2023-01-28T09:32:53;103223.25;;;2.88;73.17
45523;BME280;31254;51.680;5.394;2023-01-28T09:35:21;103224.00;;;2.93;73.07
45523;BME280;31254;51.680;5.394;2023-01-28T09:37:48;103132.19;;;2.32;73.08
45523;BME280;31254;51.680;5.394;2023-01-28T09:40:19;103214.31;;;2.85;73.25
45523;BME280;31254;51.680;5.394;2023-01-28T09:42:56;103240.16;;;2.93;72.81
45523;BME280;31254;51.680;5.394;2023-01-28T09:45:38;103244.56;;;2.96;73.23
45523;BME280;31254;51.680;5.394;2023-01-28T09:48:18;103227.47;;;2.97;73.06
45523;BME280;31254;51.680;5.394;2023-01-28T09:50:52;103228.34;;;2.98;72.78
45523;BME280;31254;51.680;5.394;2023-01-28T09:53:41;103238.16;;;3.02;72.82
45523;BME280;31254;51.680;5.394;2023-01-28T09:56:13;103232.19;;;2.89;72.82
45523;BME280;31254;51.680;5.394;2023-01-28T09:58:41;103246.59;;;2.88;73.40
45523;BME280;31254;51.680;5.394;2023-01-28T10:09:44;103259.88;;;2.96;72.93
45523;BME280;31254;51.680;5.394;2023-01-28T10:17:53;103204.13;;;2.63;72.59
45523;BME280;31254;51.680;5.394;2023-01-28T10:20:47;103249.19;;;2.92;72.80
45523;BME280;31254;51.680;5.394;2023-01-28T10:23:19;103253.56;;;2.97;72.88
45523;BME280;31254;51.680;5.394;2023-01-28T10:25:47;103259.00;;;2.95;72.55
45523;BME280;31254;51.680;5.394;2023-01-28T10:28:21;103247.22;;;2.98;72.82
45523;BME280;31254;51.680;5.394;2023-01-28T10:30:50;103256.19;;;3.00;72.71
45523;BME280;31254;51.680;5.394;2023-01-28T10:33:32;103166.59;;;2.55;72.89
45523;BME280;31254;51.680;5.394;2023-01-28T10:36:01;103248.81;;;3.06;72.46
45523;BME280;31254;51.680;5.394;2023-01-28T10:38:32;103226.28;;;3.07;72.49
45523;BME280;31254;51.680;5.394;2023-01-28T10:41:03;103248.31;;;3.23;71.98
45523;BME280;31254;51.680;5.394;2023-01-28T10:43:37;103253.53;;;3.29;71.99
45523;BME280;31254;51.680;5.394;2023-01-28T10:46:27;103177.41;;;2.88;71.54
45523;BME280;31254;51.680;5.394;2023-01-28T10:49:10;103226.59;;;3.28;71.76
45523;BME280;31254;51.680;5.394;2023-01-28T10:51:40;103239.84;;;3.37;71.23
45523;BME280;31254;51.680;5.394;2023-01-28T10:54:22;103218.59;;;3.25;70.93
45523;BME280;31254;51.680;5.394;2023-01-28T10:56:53;103231.88;;;3.33;71.43
45523;BME280;31254;51.680;5.394;2023-01-28T10:59:28;103219.38;;;3.28;71.28
45523;BME280;31254;51.680;5.394;2023-01-28T11:01:57;103234.19;;;3.45;70.78
45523;BME280;31254;51.680;5.394;2023-01-28T11:04:30;103209.72;;;3.51;70.84
45523;BME280;31254;51.680;5.394;2023-01-28T11:07:16;103215.78;;;3.59;71.46
45523;BME280;31254;51.680;5.394;2023-01-28T11:09:47;103220.94;;;3.67;70.90
45523;BME280;31254;51.680;5.394;2023-01-28T11:12:25;103204.50;;;3.75;70.44
45523;BME280;31254;51.680;5.394;2023-01-28T11:14:56;103195.41;;;3.77;70.45
45523;BME280;31254;51.680;5.394;2023-01-28T11:17:26;103194.34;;;3.83;70.38
45523;BME280;31254;51.680;5.394;2023-01-28T11:19:56;103121.50;;;3.53;70.58
45523;BME280;31254;51.680;5.394;2023-01-28T11:22:31;103183.16;;;3.95;69.91
45523;BME280;31254;51.680;5.394;2023-01-28T11:25:00;103161.47;;;3.70;70.55
45523;BME280;31254;51.680;5.394;2023-01-28T11:27:29;103185.25;;;3.57;71.19
45523;BME280;31254;51.680;5.394;2023-01-28T11:29:59;103175.69;;;3.47;71.18
45523;BME280;31254;51.680;5.394;2023-01-28T11:32:30;103142.91;;;3.29;71.22
45523;BME280;31254;51.680;5.394;2023-01-28T11:34:57;103177.06;;;3.60;71.11
45523;BME280;31254;51.680;5.394;2023-01-28T11:37:27;103176.06;;;3.64;71.04
45523;BME280;31254;51.680;5.394;2023-01-28T11:40:21;103155.97;;;3.73;71.12
45523;BME280;31254;51.680;5.394;2023-01-28T11:42:55;103153.84;;;3.83;71.15
45523;BME280;31254;51.680;5.394;2023-01-28T11:48:22;103113.19;;;4.14;70.51
45523;BME280;31254;51.680;5.394;2023-01-28T11:51:01;103049.00;;;3.96;70.63
45523;BME280;31254;51.680;5.394;2023-01-28T12:08:25;103053.91;;;4.60;69.25
45523;BME280;31254;51.680;5.394;2023-01-28T12:16:56;103096.03;;;4.66;68.92
45523;BME280;31254;51.680;5.394;2023-01-28T12:19:36;103095.72;;;4.75;68.72
45523;BME280;31254;51.680;5.394;2023-01-28T12:22:30;103088.47;;;4.75;68.91
45523;BME280;31254;51.680;5.394;2023-01-28T12:30:19;103127.06;;;5.04;68.08
45523;BME280;31254;51.680;5.394;2023-01-28T12:35:26;103132.00;;;5.17;67.88
45523;BME280;31254;51.680;5.394;2023-01-28T12:37:59;103134.63;;;5.42;67.16
45523;BME280;31254;51.680;5.394;2023-01-28T12:40:46;103132.91;;;5.39;67.61
45523;BME280;31254;51.680;5.394;2023-01-28T12:43:19;103133.13;;;5.35;67.37
45523;BME280;31254;51.680;5.394;2023-01-28T12:46:02;103117.34;;;5.22;67.60
45523;BME280;31254;51.680;5.394;2023-01-28T12:49:06;103106.22;;;5.30;67.86
45523;BME280;31254;51.680;5.394;2023-01-28T12:54:09;103137.91;;;5.50;67.33
45523;BME280;31254;51.680;5.394;2023-01-28T12:56:41;103118.16;;;5.48;67.54
45523;BME280;31254;51.680;5.394;2023-01-28T13:05:05;103129.03;;;5.46;67.06
45523;BME280;31254;51.680;5.394;2023-01-28T13:07:52;103124.06;;;5.58;66.92
45523;BME280;31254;51.680;5.394;2023-01-28T13:10:28;103125.81;;;5.59;66.80
45523;BME280;31254;51.680;5.394;2023-01-28T13:13:02;103113.72;;;5.45;67.00
45523;BME280;31254;51.680;5.394;2023-01-28T13:15:30;103113.66;;;5.47;67.60
45523;BME280;31254;51.680;5.394;2023-01-28T13:18:02;103102.09;;;5.43;67.03
45523;BME280;31254;51.680;5.394;2023-01-28T13:20:50;103101.56;;;5.34;65.67
45523;BME280;31254;51.680;5.394;2023-01-28T13:25:53;103099.63;;;5.37;66.96
45523;BME280;31254;51.680;5.394;2023-01-28T13:28:31;103102.50;;;5.32;67.73
45523;BME280;31254;51.680;5.394;2023-01-28T13:31:04;103098.31;;;5.47;67.74
45523;BME280;31254;51.680;5.394;2023-01-28T13:33:37;103092.63;;;5.31;68.18
45523;BME280;31254;51.680;5.394;2023-01-28T13:41:52;103074.72;;;5.51;63.48
45523;BME280;31254;51.680;5.394;2023-01-28T13:44:33;103061.66;;;5.39;65.17
45523;BME280;31254;51.680;5.394;2023-01-28T13:49:36;103048.44;;;5.53;64.27
45523;BME280;31254;51.680;5.394;2023-01-28T13:52:22;103039.47;;;5.73;64.21
45523;BME280;31254;51.680;5.394;2023-01-28T13:54:50;103047.44;;;5.56;65.55
45523;BME280;31254;51.680;5.394;2023-01-28T14:00:57;103036.34;;;5.62;65.07
45523;BME280;31254;51.680;5.394;2023-01-28T14:09:28;103052.25;;;5.92;61.23
45523;BME280;31254;51.680;5.394;2023-01-28T14:20:28;103087.22;;;5.31;64.19
45523;BME280;31254;51.680;5.394;2023-01-28T14:23:05;103088.41;;;5.24;65.03
45523;BME280;31254;51.680;5.394;2023-01-28T14:28:27;103049.91;;;4.94;65.84
45523;BME280;31254;51.680;5.394;2023-01-28T14:31:05;103081.06;;;5.04;66.40
45523;BME280;31254;51.680;5.394;2023-01-28T14:33:35;103043.56;;;4.71;66.54
45523;BME280;31254;51.680;5.394;2023-01-28T14:36:05;103067.59;;;4.79;67.03
45523;BME280;31254;51.680;5.394;2023-01-28T14:38:40;103061.47;;;4.74;67.15
45523;BME280;31254;51.680;5.394;2023-01-28T14:41:23;103087.38;;;4.81;67.13
45523;BME280;31254;51.680;5.394;2023-01-28T14:43:55;103080.13;;;4.82;66.02
45523;BME280;31254;51.680;5.394;2023-01-28T14:47:10;103084.03;;;4.73;66.61
45523;BME280;31254;51.680;5.394;2023-01-28T14:49:48;103074.47;;;4.64;67.10
45523;BME280;31254;51.680;5.394;2023-01-28T14:58:14;103071.00;;;4.61;67.64
45523;BME280;31254;51.680;5.394;2023-01-28T15:00:53;103077.44;;;4.56;68.27
45523;BME280;31254;51.680;5.394;2023-01-28T15:03:20;103067.75;;;4.51;67.75
45523;BME280;31254;51.680;5.394;2023-01-28T15:06:12;103058.69;;;4.52;68.76
45523;BME280;31254;51.680;5.394;2023-01-28T15:08:39;103037.75;;;4.33;68.55
45523;BME280;31254;51.680;5.394;2023-01-28T15:11:15;103046.31;;;4.70;66.39
45523;BME280;31254;51.680;5.394;2023-01-28T15:13:46;103081.88;;;4.59;67.99
45523;BME280;31254;51.680;5.394;2023-01-28T15:16:24;103087.59;;;4.50;67.79
45523;BME280;31254;51.680;5.394;2023-01-28T15:18:55;103082.41;;;4.44;68.35
45523;BME280;31254;51.680;5.394;2023-01-28T15:21:24;103084.41;;;4.38;68.29
45523;BME280;31254;51.680;5.394;2023-01-28T15:23:57;103096.28;;;4.34;68.76
45523;BME280;31254;51.680;5.394;2023-01-28T15:26:28;103072.59;;;4.16;68.95